sensor_id;sensor_type;location;lat;lon;timestamp;P1;durP1;ratioP1;P2;durP2;ratioP2
10540;SDS011;5318;50.844;4.272;2022-12-18T00:00:04;16.00;;;15.80;;
10540;SDS011;5318;50.844;4.272;2022-12-18T00:02:40;16.53;;;16.43;;
10540;SDS011;5318;50.844;4.272;2022-12-18T00:05:17;14.90;;;14.80;;
10540;SDS011;5318;50.844;4.272;2022-12-18T00:07:54;15.13;;;15.03;;
10540;SDS011;5318;50.844;4.272;2022-12-18T00:10:30;18.77;;;18.57;;
10540;SDS011;5318;50.844;4.272;2022-12-18T00:13:07;18.60;;;18.40;;
10540;SDS011;5318;50.844;4.272;2022-12-18T00:15:43;18.60;;;18.40;;
10540;SDS011;5318;50.844;4.272;2022-12-18T00:18:21;14.93;;;14.83;;
10540;SDS011;5318;50.844;4.272;2022-12-18T00:21:01;15.60;;;15.40;;
10540;SDS011;5318;50.844;4.272;2022-12-18T00:23:38;14.10;;;14.00;;
10540;SDS011;5318;50.844;4.272;2022-12-18T00:26:15;12.40;;;12.30;;
10540;SDS011;5318;50.844;4.272;2022-12-18T00:28:51;15.17;;;15.07;;
10540;SDS011;5318;50.844;4.272;2022-12-18T00:31:27;12.07;;;11.97;;
10540;SDS011;5318;50.844;4.272;2022-12-18T00:34:04;12.63;;;12.53;;
10540;SDS011;5318;50.844;4.272;2022-12-18T00:36:41;14.87;;;14.77;;
10540;SDS011;5318;50.844;4.272;2022-12-18T00:39:17;15.27;;;15.17;;
10540;SDS011;5318;50.844;4.272;2022-12-18T00:41:54;13.67;;;13.57;;
10540;SDS011;5318;50.844;4.272;2022-12-18T00:44:31;12.27;;;12.17;;
10540;SDS011;5318;50.844;4.272;2022-12-18T00:47:08;13.77;;;13.57;;
10540;SDS011;5318;50.844;4.272;2022-12-18T00:49:44;12.67;;;12.57;;
10540;SDS011;5318;50.844;4.272;2022-12-18T00:52:21;12.17;;;12.07;;
10540;SDS011;5318;50.844;4.272;2022-12-18T00:54:57;12.07;;;11.97;;
10540;SDS011;5318;50.844;4.272;2022-12-18T00:57:34;15.83;;;15.63;;
10540;SDS011;5318;50.844;4.272;2022-12-18T01:00:11;11.90;;;11.80;;
10540;SDS011;5318;50.844;4.272;2022-12-18T01:02:48;21.80;;;21.60;;
10540;SDS011;5318;50.844;4.272;2022-12-18T01:05:25;16.20;;;16.07;;
10540;SDS011;5318;50.844;4.272;2022-12-18T01:08:01;13.40;;;13.30;;
10540;SDS011;5318;50.844;4.272;2022-12-18T01:10:40;16.93;;;16.83;;
10540;SDS011;5318;50.844;4.272;2022-12-18T01:13:14;14.03;;;13.93;;
10540;SDS011;5318;50.844;4.272;2022-12-18T01:15:51;14.03;;;13.83;;
10540;SDS011;5318;50.844;4.272;2022-12-18T01:18:27;16.77;;;16.57;;
10540;SDS011;5318;50.844;4.272;2022-12-18T01:21:11;19.17;;;18.97;;
10540;SDS011;5318;50.844;4.272;2022-12-18T01:23:46;14.47;;;14.37;;
10540;SDS011;5318;50.844;4.272;2022-12-18T01:26:23;12.50;;;12.40;;
10540;SDS011;5318;50.844;4.272;2022-12-18T01:29:00;13.87;;;13.77;;
10540;SDS011;5318;50.844;4.272;2022-12-18T01:31:36;14.63;;;14.53;;
10540;SDS011;5318;50.844;4.272;2022-12-18T01:34:13;10.93;;;10.83;;
10540;SDS011;5318;50.844;4.272;2022-12-18T01:36:49;12.07;;;11.97;;
10540;SDS011;5318;50.844;4.272;2022-12-18T01:39:26;12.90;;;12.80;;
10540;SDS011;5318;50.844;4.272;2022-12-18T01:42:05;11.47;;;11.37;;
10540;SDS011;5318;50.844;4.272;2022-12-18T01:47:42;11.23;;;11.13;;
10540;SDS011;5318;50.844;4.272;2022-12-18T01:50:25;10.33;;;10.23;;
10540;SDS011;5318;50.844;4.272;2022-12-18T01:53:21;10.60;;;10.50;;
10540;SDS011;5318;50.844;4.272;2022-12-18T01:55:58;12.13;;;12.02;;
10540;SDS011;5318;50.844;4.272;2022-12-18T01:58:43;10.70;;;10.60;;
10540;SDS011;5318;50.844;4.272;2022-12-18T02:01:18;10.30;;;10.20;;
10540;SDS011;5318;50.844;4.272;2022-12-18T02:03:54;10.17;;;10.07;;
10540;SDS011;5318;50.844;4.272;2022-12-18T02:06:34;9.63;;;9.53;;
10540;SDS011;5318;50.844;4.272;2022-12-18T02:09:12;8.90;;;8.80;;
10540;SDS011;5318;50.844;4.272;2022-12-18T02:14:38;9.23;;;9.13;;
10540;SDS011;5318;50.844;4.272;2022-12-18T02:19:55;10.43;;;10.33;;
10540;SDS011;5318;50.844;4.272;2022-12-18T02:22:53;8.77;;;8.67;;
10540;SDS011;5318;50.844;4.272;2022-12-18T02:28:55;8.23;;;8.20;;
10540;SDS011;5318;50.844;4.272;2022-12-18T02:31:43;10.63;;;10.53;;
10540;SDS011;5318;50.844;4.272;2022-12-18T02:34:19;9.80;;;9.70;;
10540;SDS011;5318;50.844;4.272;2022-12-18T02:36:55;9.80;;;9.70;;
10540;SDS011;5318;50.844;4.272;2022-12-18T02:39:32;10.97;;;10.87;;
10540;SDS011;5318;50.844;4.272;2022-12-18T02:42:08;10.13;;;10.03;;
10540;SDS011;5318;50.844;4.272;2022-12-18T02:44:45;9.47;;;9.37;;
10540;SDS011;5318;50.844;4.272;2022-12-18T02:47:22;9.33;;;9.23;;
10540;SDS011;5318;50.844;4.272;2022-12-18T02:52:53;9.57;;;9.47;;
10540;SDS011;5318;50.844;4.272;2022-12-18T02:58:18;7.90;;;7.90;;
10540;SDS011;5318;50.844;4.272;2022-12-18T03:01:19;7.63;;;7.53;;
10540;SDS011;5318;50.844;4.272;2022-12-18T03:03:59;7.90;;;7.80;;
10540;SDS011;5318;50.844;4.272;2022-12-18T03:06:40;7.27;;;7.27;;
10540;SDS011;5318;50.844;4.272;2022-12-18T03:09:20;7.80;;;7.70;;
10540;SDS011;5318;50.844;4.272;2022-12-18T03:11:56;7.50;;;7.40;;
10540;SDS011;5318;50.844;4.272;2022-12-18T03:14:32;6.70;;;6.70;;
10540;SDS011;5318;50.844;4.272;2022-12-18T03:17:10;8.27;;;8.17;;
10540;SDS011;5318;50.844;4.272;2022-12-18T03:19:46;6.97;;;6.93;;
10540;SDS011;5318;50.844;4.272;2022-12-18T03:22:22;7.37;;;7.37;;
10540;SDS011;5318;50.844;4.272;2022-12-18T03:24:59;7.30;;;7.27;;
10540;SDS011;5318;50.844;4.272;2022-12-18T03:27:36;7.97;;;7.87;;
10540;SDS011;5318;50.844;4.272;2022-12-18T03:30:12;7.77;;;7.73;;
10540;SDS011;5318;50.844;4.272;2022-12-18T03:33:06;9.50;;;9.40;;
10540;SDS011;5318;50.844;4.272;2022-12-18T03:35:41;10.00;;;9.90;;
10540;SDS011;5318;50.844;4.272;2022-12-18T03:38:16;7.83;;;7.77;;
10540;SDS011;5318;50.844;4.272;2022-12-18T03:41:03;7.20;;;7.20;;
10540;SDS011;5318;50.844;4.272;2022-12-18T03:43:42;6.63;;;6.63;;
10540;SDS011;5318;50.844;4.272;2022-12-18T03:46:17;6.60;;;6.60;;
10540;SDS011;5318;50.844;4.272;2022-12-18T03:49:05;8.80;;;8.70;;
10540;SDS011;5318;50.844;4.272;2022-12-18T03:51:39;7.30;;;7.30;;
10540;SDS011;5318;50.844;4.272;2022-12-18T03:54:14;7.30;;;7.30;;
10540;SDS011;5318;50.844;4.272;2022-12-18T03:56:53;8.50;;;8.50;;
10540;SDS011;5318;50.844;4.272;2022-12-18T03:59:27;7.40;;;7.40;;
10540;SDS011;5318;50.844;4.272;2022-12-18T04:02:04;7.10;;;7.00;;
10540;SDS011;5318;50.844;4.272;2022-12-18T04:04:41;6.83;;;6.83;;
10540;SDS011;5318;50.844;4.272;2022-12-18T04:07:17;6.80;;;6.80;;
10540;SDS011;5318;50.844;4.272;2022-12-18T04:09:54;8.27;;;8.27;;
10540;SDS011;5318;50.844;4.272;2022-12-18T04:12:31;9.03;;;8.93;;
10540;SDS011;5318;50.844;4.272;2022-12-18T04:15:07;8.17;;;8.17;;
10540;SDS011;5318;50.844;4.272;2022-12-18T04:17:48;7.37;;;7.37;;
10540;SDS011;5318;50.844;4.272;2022-12-18T04:20:24;7.03;;;7.03;;
10540;SDS011;5318;50.844;4.272;2022-12-18T04:23:00;6.40;;;6.40;;
10540;SDS011;5318;50.844;4.272;2022-12-18T04:25:37;6.23;;;6.23;;
10540;SDS011;5318;50.844;4.272;2022-12-18T04:28:14;5.63;;;5.63;;
10540;SDS011;5318;50.844;4.272;2022-12-18T04:30:50;8.33;;;8.33;;
10540;SDS011;5318;50.844;4.272;2022-12-18T04:33:27;7.00;;;7.00;;
10540;SDS011;5318;50.844;4.272;2022-12-18T04:36:03;8.13;;;8.13;;
10540;SDS011;5318;50.844;4.272;2022-12-18T04:38:40;8.50;;;8.40;;
10540;SDS011;5318;50.844;4.272;2022-12-18T04:41:16;6.10;;;6.10;;
10540;SDS011;5318;50.844;4.272;2022-12-18T04:43:54;6.97;;;6.97;;
10540;SDS011;5318;50.844;4.272;2022-12-18T04:46:30;6.50;;;6.50;;
10540;SDS011;5318;50.844;4.272;2022-12-18T04:49:07;7.13;;;7.10;;
10540;SDS011;5318;50.844;4.272;2022-12-18T04:51:43;8.47;;;8.37;;
10540;SDS011;5318;50.844;4.272;2022-12-18T04:54:20;9.93;;;9.83;;
10540;SDS011;5318;50.844;4.272;2022-12-18T04:56:57;10.93;;;10.83;;
10540;SDS011;5318;50.844;4.272;2022-12-18T04:59:33;9.87;;;9.77;;
10540;SDS011;5318;50.844;4.272;2022-12-18T05:02:10;10.00;;;9.90;;
10540;SDS011;5318;50.844;4.272;2022-12-18T05:04:46;13.17;;;13.07;;
10540;SDS011;5318;50.844;4.272;2022-12-18T05:07:23;14.00;;;13.90;;
10540;SDS011;5318;50.844;4.272;2022-12-18T05:10:00;12.67;;;12.57;;
10540;SDS011;5318;50.844;4.272;2022-12-18T05:12:36;9.00;;;8.90;;
10540;SDS011;5318;50.844;4.272;2022-12-18T05:15:13;10.43;;;10.33;;
10540;SDS011;5318;50.844;4.272;2022-12-18T05:17:50;8.37;;;8.27;;
10540;SDS011;5318;50.844;4.272;2022-12-18T05:20:27;10.37;;;10.27;;
10540;SDS011;5318;50.844;4.272;2022-12-18T05:23:03;10.80;;;10.70;;
10540;SDS011;5318;50.844;4.272;2022-12-18T05:25:40;12.13;;;12.03;;
10540;SDS011;5318;50.844;4.272;2022-12-18T05:28:16;10.20;;;10.10;;
10540;SDS011;5318;50.844;4.272;2022-12-18T05:30:55;8.90;;;8.80;;
10540;SDS011;5318;50.844;4.272;2022-12-18T05:33:31;9.50;;;9.40;;
10540;SDS011;5318;50.844;4.272;2022-12-18T05:36:07;8.80;;;8.70;;
10540;SDS011;5318;50.844;4.272;2022-12-18T05:38:43;8.73;;;8.63;;
10540;SDS011;5318;50.844;4.272;2022-12-18T05:41:21;8.73;;;8.63;;
10540;SDS011;5318;50.844;4.272;2022-12-18T05:43:58;7.47;;;7.47;;
10540;SDS011;5318;50.844;4.272;2022-12-18T05:46:35;7.10;;;7.10;;
10540;SDS011;5318;50.844;4.272;2022-12-18T05:49:12;7.30;;;7.30;;
10540;SDS011;5318;50.844;4.272;2022-12-18T05:51:49;9.27;;;9.17;;
10540;SDS011;5318;50.844;4.272;2022-12-18T05:54:28;11.20;;;11.10;;
10540;SDS011;5318;50.844;4.272;2022-12-18T05:57:04;8.87;;;8.77;;
10540;SDS011;5318;50.844;4.272;2022-12-18T05:59:41;7.90;;;7.80;;
10540;SDS011;5318;50.844;4.272;2022-12-18T06:02:17;7.40;;;7.40;;
10540;SDS011;5318;50.844;4.272;2022-12-18T06:04:54;7.90;;;7.80;;
10540;SDS011;5318;50.844;4.272;2022-12-18T06:07:31;7.73;;;7.63;;
10540;SDS011;5318;50.844;4.272;2022-12-18T06:10:07;8.50;;;8.40;;
10540;SDS011;5318;50.844;4.272;2022-12-18T06:12:44;9.50;;;9.40;;
10540;SDS011;5318;50.844;4.272;2022-12-18T06:15:20;8.40;;;8.30;;
10540;SDS011;5318;50.844;4.272;2022-12-18T06:17:58;7.10;;;7.10;;
10540;SDS011;5318;50.844;4.272;2022-12-18T06:20:34;6.60;;;6.60;;
10540;SDS011;5318;50.844;4.272;2022-12-18T06:23:11;5.90;;;5.90;;
10540;SDS011;5318;50.844;4.272;2022-12-18T06:25:47;6.20;;;6.20;;
10540;SDS011;5318;50.844;4.272;2022-12-18T06:28:24;8.23;;;8.13;;
10540;SDS011;5318;50.844;4.272;2022-12-18T06:31:02;7.13;;;7.13;;
10540;SDS011;5318;50.844;4.272;2022-12-18T06:33:37;6.07;;;6.07;;
10540;SDS011;5318;50.844;4.272;2022-12-18T06:36:14;5.77;;;5.77;;
10540;SDS011;5318;50.844;4.272;2022-12-18T06:38:50;5.63;;;5.63;;
10540;SDS011;5318;50.844;4.272;2022-12-18T06:41:27;5.30;;;5.30;;
10540;SDS011;5318;50.844;4.272;2022-12-18T06:44:04;5.80;;;5.80;;
10540;SDS011;5318;50.844;4.272;2022-12-18T06:46:41;5.40;;;5.40;;
10540;SDS011;5318;50.844;4.272;2022-12-18T06:49:17;6.03;;;6.03;;
10540;SDS011;5318;50.844;4.272;2022-12-18T06:51:54;4.87;;;4.87;;
10540;SDS011;5318;50.844;4.272;2022-12-18T06:54:30;5.70;;;5.70;;
10540;SDS011;5318;50.844;4.272;2022-12-18T06:57:07;6.10;;;6.10;;
10540;SDS011;5318;50.844;4.272;2022-12-18T06:59:44;7.30;;;7.30;;
10540;SDS011;5318;50.844;4.272;2022-12-18T07:02:20;7.00;;;7.00;;
10540;SDS011;5318;50.844;4.272;2022-12-18T07:04:57;6.40;;;6.40;;
10540;SDS011;5318;50.844;4.272;2022-12-18T07:07:34;5.60;;;5.60;;
10540;SDS011;5318;50.844;4.272;2022-12-18T07:10:11;5.63;;;5.63;;
10540;SDS011;5318;50.844;4.272;2022-12-18T07:12:47;5.20;;;5.20;;
10540;SDS011;5318;50.844;4.272;2022-12-18T07:15:25;5.87;;;5.77;;
10540;SDS011;5318;50.844;4.272;2022-12-18T07:18:01;5.70;;;5.70;;
10540;SDS011;5318;50.844;4.272;2022-12-18T07:20:38;6.43;;;6.43;;
10540;SDS011;5318;50.844;4.272;2022-12-18T07:23:15;6.20;;;6.20;;
10540;SDS011;5318;50.844;4.272;2022-12-18T07:25:51;6.70;;;6.70;;
10540;SDS011;5318;50.844;4.272;2022-12-18T07:28:28;6.23;;;6.23;;
10540;SDS011;5318;50.844;4.272;2022-12-18T07:31:05;6.27;;;6.27;;
10540;SDS011;5318;50.844;4.272;2022-12-18T07:33:42;5.17;;;5.17;;
10540;SDS011;5318;50.844;4.272;2022-12-18T07:36:18;5.90;;;5.83;;
10540;SDS011;5318;50.844;4.272;2022-12-18T07:38:55;5.53;;;5.53;;
10540;SDS011;5318;50.844;4.272;2022-12-18T07:41:32;5.40;;;5.40;;
10540;SDS011;5318;50.844;4.272;2022-12-18T07:44:10;5.70;;;5.70;;
10540;SDS011;5318;50.844;4.272;2022-12-18T07:46:46;5.90;;;5.90;;
10540;SDS011;5318;50.844;4.272;2022-12-18T07:49:23;6.97;;;6.97;;
10540;SDS011;5318;50.844;4.272;2022-12-18T07:52:00;5.80;;;5.80;;
10540;SDS011;5318;50.844;4.272;2022-12-18T07:54:37;5.20;;;5.20;;
10540;SDS011;5318;50.844;4.272;2022-12-18T07:57:13;6.20;;;6.20;;
10540;SDS011;5318;50.844;4.272;2022-12-18T07:59:50;7.80;;;7.80;;
10540;SDS011;5318;50.844;4.272;2022-12-18T08:02:26;8.10;;;8.10;;
10540;SDS011;5318;50.844;4.272;2022-12-18T08:05:03;7.60;;;7.60;;
10540;SDS011;5318;50.844;4.272;2022-12-18T08:07:39;5.60;;;5.60;;
10540;SDS011;5318;50.844;4.272;2022-12-18T08:10:16;7.13;;;7.13;;
10540;SDS011;5318;50.844;4.272;2022-12-18T08:12:53;7.67;;;7.67;;
10540;SDS011;5318;50.844;4.272;2022-12-18T08:15:29;7.00;;;7.00;;
10540;SDS011;5318;50.844;4.272;2022-12-18T08:18:06;6.37;;;6.37;;
10540;SDS011;5318;50.844;4.272;2022-12-18T08:20:42;7.67;;;7.67;;
10540;SDS011;5318;50.844;4.272;2022-12-18T08:23:19;6.67;;;6.67;;
10540;SDS011;5318;50.844;4.272;2022-12-18T08:25:57;6.53;;;6.53;;
10540;SDS011;5318;50.844;4.272;2022-12-18T08:28:32;7.33;;;7.33;;
10540;SDS011;5318;50.844;4.272;2022-12-18T08:31:09;7.33;;;7.33;;
10540;SDS011;5318;50.844;4.272;2022-12-18T08:33:47;7.17;;;7.17;;
10540;SDS011;5318;50.844;4.272;2022-12-18T08:36:23;7.93;;;7.93;;
10540;SDS011;5318;50.844;4.272;2022-12-18T08:39:01;7.00;;;7.00;;
10540;SDS011;5318;50.844;4.272;2022-12-18T08:41:38;7.03;;;7.03;;
10540;SDS011;5318;50.844;4.272;2022-12-18T08:44:15;7.30;;;7.30;;
10540;SDS011;5318;50.844;4.272;2022-12-18T08:46:52;6.90;;;6.90;;
10540;SDS011;5318;50.844;4.272;2022-12-18T08:49:29;5.90;;;5.90;;
10540;SDS011;5318;50.844;4.272;2022-12-18T08:52:06;7.00;;;7.00;;
10540;SDS011;5318;50.844;4.272;2022-12-18T08:54:43;6.73;;;6.70;;
10540;SDS011;5318;50.844;4.272;2022-12-18T08:57:20;6.20;;;6.20;;
10540;SDS011;5318;50.844;4.272;2022-12-18T08:59:58;7.80;;;7.80;;
10540;SDS011;5318;50.844;4.272;2022-12-18T09:02:35;6.50;;;6.50;;
10540;SDS011;5318;50.844;4.272;2022-12-18T09:05:12;5.83;;;5.83;;
10540;SDS011;5318;50.844;4.272;2022-12-18T09:07:49;8.10;;;8.10;;
10540;SDS011;5318;50.844;4.272;2022-12-18T09:10:25;6.43;;;6.43;;
10540;SDS011;5318;50.844;4.272;2022-12-18T09:13:02;7.20;;;7.20;;
10540;SDS011;5318;50.844;4.272;2022-12-18T09:15:42;7.37;;;7.37;;
10540;SDS011;5318;50.844;4.272;2022-12-18T09:18:21;7.60;;;7.60;;
10540;SDS011;5318;50.844;4.272;2022-12-18T09:20:57;7.43;;;7.43;;
10540;SDS011;5318;50.844;4.272;2022-12-18T09:23:34;7.23;;;7.23;;
10540;SDS011;5318;50.844;4.272;2022-12-18T09:26:10;7.93;;;7.83;;
10540;SDS011;5318;50.844;4.272;2022-12-18T09:28:47;7.13;;;7.13;;
10540;SDS011;5318;50.844;4.272;2022-12-18T09:31:24;5.33;;;5.33;;
10540;SDS011;5318;50.844;4.272;2022-12-18T09:34:00;7.07;;;7.07;;
10540;SDS011;5318;50.844;4.272;2022-12-18T09:36:37;8.40;;;8.40;;
10540;SDS011;5318;50.844;4.272;2022-12-18T09:39:13;7.83;;;7.77;;
10540;SDS011;5318;50.844;4.272;2022-12-18T09:41:53;7.97;;;7.87;;
10540;SDS011;5318;50.844;4.272;2022-12-18T09:44:30;9.27;;;9.18;;
10540;SDS011;5318;50.844;4.272;2022-12-18T09:47:15;8.67;;;8.67;;
10540;SDS011;5318;50.844;4.272;2022-12-18T09:49:47;8.60;;;8.50;;
10540;SDS011;5318;50.844;4.272;2022-12-18T09:55:22;7.70;;;7.70;;
10540;SDS011;5318;50.844;4.272;2022-12-18T09:57:49;8.57;;;8.57;;
10540;SDS011;5318;50.844;4.272;2022-12-18T10:00:24;7.97;;;7.97;;
10540;SDS011;5318;50.844;4.272;2022-12-18T10:03:02;7.60;;;7.60;;
10540;SDS011;5318;50.844;4.272;2022-12-18T10:05:40;7.37;;;7.30;;
10540;SDS011;5318;50.844;4.272;2022-12-18T10:08:33;7.73;;;7.73;;
10540;SDS011;5318;50.844;4.272;2022-12-18T10:14:23;8.63;;;8.53;;
10540;SDS011;5318;50.844;4.272;2022-12-18T10:17:02;8.57;;;8.47;;
10540;SDS011;5318;50.844;4.272;2022-12-18T10:19:56;8.70;;;8.60;;
10540;SDS011;5318;50.844;4.272;2022-12-18T10:25:27;8.07;;;7.97;;
10540;SDS011;5318;50.844;4.272;2022-12-18T10:28:10;8.47;;;8.37;;
10540;SDS011;5318;50.844;4.272;2022-12-18T10:30:47;8.40;;;8.30;;
10540;SDS011;5318;50.844;4.272;2022-12-18T10:33:27;8.73;;;8.67;;
10540;SDS011;5318;50.844;4.272;2022-12-18T10:36:01;10.37;;;10.27;;
10540;SDS011;5318;50.844;4.272;2022-12-18T10:38:37;8.93;;;8.83;;
10540;SDS011;5318;50.844;4.272;2022-12-18T10:44:36;8.50;;;8.50;;
10540;SDS011;5318;50.844;4.272;2022-12-18T10:46:54;8.37;;;8.37;;
10540;SDS011;5318;50.844;4.272;2022-12-18T10:49:33;8.63;;;8.53;;
10540;SDS011;5318;50.844;4.272;2022-12-18T10:54:58;8.97;;;8.87;;
10540;SDS011;5318;50.844;4.272;2022-12-18T10:57:33;7.30;;;7.20;;
10540;SDS011;5318;50.844;4.272;2022-12-18T11:00:25;7.47;;;7.47;;
10540;SDS011;5318;50.844;4.272;2022-12-18T11:03:00;9.40;;;9.30;;
10540;SDS011;5318;50.844;4.272;2022-12-18T11:05:37;8.43;;;8.43;;
10540;SDS011;5318;50.844;4.272;2022-12-18T11:08:21;9.07;;;8.97;;
10540;SDS011;5318;50.844;4.272;2022-12-18T11:10:57;9.17;;;9.07;;
10540;SDS011;5318;50.844;4.272;2022-12-18T11:13:34;8.40;;;8.40;;
10540;SDS011;5318;50.844;4.272;2022-12-18T11:16:18;9.40;;;9.30;;
10540;SDS011;5318;50.844;4.272;2022-12-18T11:18:49;9.20;;;9.10;;
10540;SDS011;5318;50.844;4.272;2022-12-18T11:21:26;9.30;;;9.20;;
10540;SDS011;5318;50.844;4.272;2022-12-18T11:24:04;9.17;;;9.07;;
10540;SDS011;5318;50.844;4.272;2022-12-18T11:26:41;9.30;;;9.20;;
10540;SDS011;5318;50.844;4.272;2022-12-18T11:29:20;8.57;;;8.47;;
10540;SDS011;5318;50.844;4.272;2022-12-18T11:32:12;10.37;;;10.27;;
10540;SDS011;5318;50.844;4.272;2022-12-18T11:34:32;9.73;;;9.63;;
10540;SDS011;5318;50.844;4.272;2022-12-18T11:37:08;9.13;;;9.03;;
10540;SDS011;5318;50.844;4.272;2022-12-18T11:39:56;8.33;;;8.23;;
10540;SDS011;5318;50.844;4.272;2022-12-18T11:42:28;8.90;;;8.80;;
10540;SDS011;5318;50.844;4.272;2022-12-18T11:47:56;10.17;;;10.07;;
10540;SDS011;5318;50.844;4.272;2022-12-18T11:53:13;11.18;;;11.07;;
10540;SDS011;5318;50.844;4.272;2022-12-18T12:01:38;9.37;;;9.27;;
10540;SDS011;5318;50.844;4.272;2022-12-18T12:04:20;8.77;;;8.67;;
10540;SDS011;5318;50.844;4.272;2022-12-18T12:13:20;10.07;;;9.97;;
10540;SDS011;5318;50.844;4.272;2022-12-18T12:16:02;9.83;;;9.73;;
10540;SDS011;5318;50.844;4.272;2022-12-18T12:21:34;10.00;;;9.90;;
10540;SDS011;5318;50.844;4.272;2022-12-18T12:33:14;9.07;;;8.97;;
10540;SDS011;5318;50.844;4.272;2022-12-18T12:38:46;11.75;;;11.65;;
10540;SDS011;5318;50.844;4.272;2022-12-18T12:41:19;10.40;;;10.30;;
10540;SDS011;5318;50.844;4.272;2022-12-18T12:43:56;10.30;;;10.20;;
10540;SDS011;5318;50.844;4.272;2022-12-18T12:46:32;9.63;;;9.53;;
10540;SDS011;5318;50.844;4.272;2022-12-18T12:49:12;10.73;;;10.63;;
10540;SDS011;5318;50.844;4.272;2022-12-18T12:52:03;11.73;;;11.63;;
10540;SDS011;5318;50.844;4.272;2022-12-18T12:54:36;11.53;;;11.43;;
10540;SDS011;5318;50.844;4.272;2022-12-18T12:57:23;11.07;;;10.97;;
10540;SDS011;5318;50.844;4.272;2022-12-18T13:00:06;11.03;;;10.93;;
10540;SDS011;5318;50.844;4.272;2022-12-18T13:05:44;10.47;;;10.37;;
10540;SDS011;5318;50.844;4.272;2022-12-18T13:08:27;9.43;;;9.33;;
10540;SDS011;5318;50.844;4.272;2022-12-18T13:11:03;11.27;;;11.17;;
10540;SDS011;5318;50.844;4.272;2022-12-18T13:13:50;11.50;;;11.40;;
10540;SDS011;5318;50.844;4.272;2022-12-18T13:16:27;11.63;;;11.53;;
10540;SDS011;5318;50.844;4.272;2022-12-18T13:19:03;10.87;;;10.67;;
10540;SDS011;5318;50.844;4.272;2022-12-18T13:21:40;11.57;;;11.37;;
10540;SDS011;5318;50.844;4.272;2022-12-18T13:24:26;10.50;;;10.40;;
10540;SDS011;5318;50.844;4.272;2022-12-18T13:27:24;11.23;;;11.13;;
10540;SDS011;5318;50.844;4.272;2022-12-18T13:29:42;12.63;;;12.53;;
10540;SDS011;5318;50.844;4.272;2022-12-18T13:32:24;11.27;;;11.17;;
10540;SDS011;5318;50.844;4.272;2022-12-18T13:37:59;12.50;;;12.40;;
10540;SDS011;5318;50.844;4.272;2022-12-18T13:46:01;10.00;;;9.90;;
10540;SDS011;5318;50.844;4.272;2022-12-18T13:48:38;11.73;;;11.63;;
10540;SDS011;5318;50.844;4.272;2022-12-18T13:51:15;12.33;;;12.23;;
10540;SDS011;5318;50.844;4.272;2022-12-18T13:53:52;12.90;;;12.80;;
10540;SDS011;5318;50.844;4.272;2022-12-18T13:56:29;13.37;;;13.27;;
10540;SDS011;5318;50.844;4.272;2022-12-18T14:01:56;17.05;;;16.95;;
10540;SDS011;5318;50.844;4.272;2022-12-18T14:04:33;15.30;;;15.10;;
10540;SDS011;5318;50.844;4.272;2022-12-18T14:07:13;15.95;;;15.85;;
10540;SDS011;5318;50.844;4.272;2022-12-18T14:09:49;14.23;;;14.13;;
10540;SDS011;5318;50.844;4.272;2022-12-18T14:12:26;14.50;;;14.37;;
10540;SDS011;5318;50.844;4.272;2022-12-18T14:15:02;14.77;;;14.57;;
10540;SDS011;5318;50.844;4.272;2022-12-18T14:17:38;15.40;;;15.20;;
10540;SDS011;5318;50.844;4.272;2022-12-18T14:20:15;12.80;;;12.70;;
10540;SDS011;5318;50.844;4.272;2022-12-18T14:22:52;13.03;;;12.93;;
10540;SDS011;5318;50.844;4.272;2022-12-18T14:25:29;12.87;;;12.77;;
10540;SDS011;5318;50.844;4.272;2022-12-18T14:30:45;18.10;;;17.90;;
10540;SDS011;5318;50.844;4.272;2022-12-18T14:33:23;17.15;;;16.95;;
10540;SDS011;5318;50.844;4.272;2022-12-18T14:35:59;17.92;;;17.73;;
10540;SDS011;5318;50.844;4.272;2022-12-18T14:38:35;16.98;;;16.87;;
10540;SDS011;5318;50.844;4.272;2022-12-18T14:41:13;16.57;;;16.37;;
10540;SDS011;5318;50.844;4.272;2022-12-18T14:43:49;13.97;;;13.87;;
10540;SDS011;5318;50.844;4.272;2022-12-18T14:52:06;15.90;;;15.70;;
10540;SDS011;5318;50.844;4.272;2022-12-18T14:54:45;16.67;;;16.47;;
10540;SDS011;5318;50.844;4.272;2022-12-18T14:57:23;16.40;;;16.30;;
10540;SDS011;5318;50.844;4.272;2022-12-18T15:00:06;9.97;;;9.87;;
10540;SDS011;5318;50.844;4.272;2022-12-18T15:02:42;13.37;;;13.27;;
10540;SDS011;5318;50.844;4.272;2022-12-18T15:05:28;12.57;;;12.47;;
10540;SDS011;5318;50.844;4.272;2022-12-18T15:08:25;14.90;;;14.70;;
10540;SDS011;5318;50.844;4.272;2022-12-18T15:10:46;11.60;;;11.50;;
10540;SDS011;5318;50.844;4.272;2022-12-18T15:13:21;15.57;;;15.37;;
10540;SDS011;5318;50.844;4.272;2022-12-18T15:15:58;13.73;;;13.57;;
10540;SDS011;5318;50.844;4.272;2022-12-18T15:18:34;13.90;;;13.77;;
10540;SDS011;5318;50.844;4.272;2022-12-18T15:21:11;11.30;;;11.20;;
10540;SDS011;5318;50.844;4.272;2022-12-18T15:23:48;15.23;;;15.03;;
10540;SDS011;5318;50.844;4.272;2022-12-18T15:26:23;12.80;;;12.70;;
10540;SDS011;5318;50.844;4.272;2022-12-18T15:29:00;12.93;;;12.83;;
10540;SDS011;5318;50.844;4.272;2022-12-18T15:31:36;13.90;;;13.80;;
10540;SDS011;5318;50.844;4.272;2022-12-18T15:34:17;17.92;;;17.73;;
10540;SDS011;5318;50.844;4.272;2022-12-18T15:36:50;13.10;;;13.00;;
10540;SDS011;5318;50.844;4.272;2022-12-18T15:39:26;12.83;;;12.73;;
10540;SDS011;5318;50.844;4.272;2022-12-18T15:42:04;13.97;;;13.77;;
10540;SDS011;5318;50.844;4.272;2022-12-18T15:44:42;14.00;;;13.90;;
10540;SDS011;5318;50.844;4.272;2022-12-18T15:47:18;14.30;;;14.10;;
10540;SDS011;5318;50.844;4.272;2022-12-18T15:49:55;16.40;;;16.20;;
10540;SDS011;5318;50.844;4.272;2022-12-18T15:52:32;14.60;;;14.50;;
10540;SDS011;5318;50.844;4.272;2022-12-18T15:55:13;14.10;;;14.00;;
10540;SDS011;5318;50.844;4.272;2022-12-18T15:57:52;13.87;;;13.77;;
10540;SDS011;5318;50.844;4.272;2022-12-18T16:00:28;11.83;;;11.73;;
10540;SDS011;5318;50.844;4.272;2022-12-18T16:03:05;13.77;;;13.67;;
10540;SDS011;5318;50.844;4.272;2022-12-18T16:05:41;11.77;;;11.67;;
10540;SDS011;5318;50.844;4.272;2022-12-18T16:08:18;14.57;;;14.37;;
10540;SDS011;5318;50.844;4.272;2022-12-18T16:10:55;13.77;;;13.57;;
10540;SDS011;5318;50.844;4.272;2022-12-18T16:13:31;17.03;;;16.93;;
10540;SDS011;5318;50.844;4.272;2022-12-18T16:16:09;13.63;;;13.53;;
10540;SDS011;5318;50.844;4.272;2022-12-18T16:18:45;10.83;;;10.73;;
10540;SDS011;5318;50.844;4.272;2022-12-18T16:21:22;13.30;;;13.20;;
10540;SDS011;5318;50.844;4.272;2022-12-18T16:23:58;11.97;;;11.87;;
10540;SDS011;5318;50.844;4.272;2022-12-18T16:26:35;14.90;;;14.70;;
10540;SDS011;5318;50.844;4.272;2022-12-18T16:29:11;14.43;;;14.23;;
10540;SDS011;5318;50.844;4.272;2022-12-18T16:31:48;14.57;;;14.40;;
10540;SDS011;5318;50.844;4.272;2022-12-18T16:37:06;15.50;;;15.30;;
10540;SDS011;5318;50.844;4.272;2022-12-18T16:39:41;9.77;;;9.67;;
10540;SDS011;5318;50.844;4.272;2022-12-18T16:42:18;14.73;;;14.53;;
10540;SDS011;5318;50.844;4.272;2022-12-18T16:44:54;13.80;;;13.70;;
10540;SDS011;5318;50.844;4.272;2022-12-18T16:47:30;14.50;;;14.30;;
10540;SDS011;5318;50.844;4.272;2022-12-18T16:50:07;15.07;;;14.87;;
10540;SDS011;5318;50.844;4.272;2022-12-18T16:52:44;12.73;;;12.63;;
10540;SDS011;5318;50.844;4.272;2022-12-18T16:55:20;13.47;;;13.30;;
10540;SDS011;5318;50.844;4.272;2022-12-18T16:57:57;11.93;;;11.83;;
10540;SDS011;5318;50.844;4.272;2022-12-18T17:00:33;13.47;;;13.30;;
10540;SDS011;5318;50.844;4.272;2022-12-18T17:03:10;13.00;;;12.90;;
10540;SDS011;5318;50.844;4.272;2022-12-18T17:05:47;14.67;;;14.47;;
10540;SDS011;5318;50.844;4.272;2022-12-18T17:08:24;14.03;;;13.83;;
10540;SDS011;5318;50.844;4.272;2022-12-18T17:11:04;13.53;;;13.43;;
10540;SDS011;5318;50.844;4.272;2022-12-18T17:13:42;14.00;;;13.80;;
10540;SDS011;5318;50.844;4.272;2022-12-18T17:16:19;17.53;;;17.33;;
10540;SDS011;5318;50.844;4.272;2022-12-18T17:18:56;13.07;;;12.97;;